createdAt,value
2022-10-21T00:00:40.798Z,81.38
2022-10-21T00:03:13.076Z,80.71
2022-10-21T00:05:45.553Z,81.91
2022-10-21T00:08:19.031Z,81.16
2022-10-21T00:10:52.529Z,81.48
2022-10-21T00:13:25.922Z,81.52
2022-10-21T00:16:00.651Z,81.98
2022-10-21T00:18:34.819Z,81.82
2022-10-21T00:21:09.269Z,82.02
2022-10-21T00:23:42.826Z,81.74
2022-10-21T00:26:16.989Z,82.11
2022-10-21T00:28:49.427Z,81.53
2022-10-21T00:31:23.210Z,81.59
2022-10-21T00:33:55.774Z,82.50
2022-10-21T00:36:28.103Z,82.09
2022-10-21T00:39:00.468Z,81.61
2022-10-21T00:41:32.842Z,82.31
2022-10-21T00:44:07.474Z,81.49
2022-10-21T00:46:44.991Z,81.53
2022-10-21T00:49:21.362Z,81.68
2022-10-21T00:51:59.619Z,82.26
2022-10-21T00:54:32.696Z,81.49
2022-10-21T00:57:05.827Z,82.10
2022-10-21T00:59:41.916Z,82.09
2022-10-21T01:02:14.978Z,81.52
2022-10-21T01:04:51.763Z,81.40
2022-10-21T01:07:24.703Z,81.51
2022-10-21T01:09:57.048Z,81.51
2022-10-21T01:12:38.237Z,82.08
2022-10-21T01:15:18.495Z,82.24
2022-10-21T01:18:01.560Z,82.42
2022-10-21T01:21:14.064Z,82.84
2022-10-21T01:24:14.653Z,82.92
2022-10-21T01:27:19.658Z,83.52
2022-10-21T01:30:09.184Z,84.19
2022-10-21T01:33:03.259Z,84.31
2022-10-21T01:35:44.789Z,84.70
2022-10-21T01:38:23.798Z,84.85
2022-10-21T01:41:00.675Z,84.36
2022-10-21T01:43:39.098Z,84.37
2022-10-21T01:46:15.507Z,85.06
2022-10-21T01:48:52.453Z,84.35
2022-10-21T01:51:27.379Z,84.33
2022-10-21T01:54:05.622Z,83.62
2022-10-21T01:56:40.633Z,83.79
2022-10-21T01:59:15.851Z,84.43
2022-10-21T02:01:49.846Z,84.06
2022-10-21T02:04:23.910Z,84.17
2022-10-21T02:06:56.385Z,84.49
2022-10-21T02:09:28.777Z,84.51
2022-10-21T02:12:04.093Z,84.95
2022-10-21T02:14:41.253Z,84.81
2022-10-21T02:17:16.203Z,84.19
2022-10-21T02:19:49.282Z,84.14
2022-10-21T02:22:22.548Z,84.21
2022-10-21T02:24:57.622Z,84.54
2022-10-21T02:27:29.988Z,84.83
2022-10-21T02:30:02.827Z,84.13
2022-10-21T02:32:39.976Z,84.12
2022-10-21T02:35:23.155Z,83.97
2022-10-21T02:38:01.670Z,83.83
2022-10-21T02:40:37.643Z,83.57
2022-10-21T02:43:15.411Z,84.40
2022-10-21T02:45:48.674Z,84.82
2022-10-21T02:48:21.038Z,84.58
2022-10-21T02:50:54.353Z,84.47
2022-10-21T02:53:26.687Z,84.32
2022-10-21T02:55:59.009Z,84.39
2022-10-21T02:58:31.737Z,84.22
2022-10-21T03:01:04.388Z,84.18
2022-10-21T03:03:36.794Z,83.90
2022-10-21T03:06:09.846Z,84.10
2022-10-21T03:08:42.298Z,84.41
2022-10-21T03:11:14.614Z,84.74
2022-10-21T03:13:46.953Z,84.24
2022-10-21T03:18:56.574Z,84.23
2022-10-21T03:21:29.578Z,84.34
2022-10-21T03:24:02.191Z,83.31
2022-10-21T03:26:34.487Z,83.99
2022-10-21T03:29:06.951Z,85.10
2022-10-21T03:31:39.267Z,85.71
2022-10-21T03:34:11.587Z,86.01
2022-10-21T03:36:44.653Z,85.34
2022-10-21T03:39:16.933Z,84.78
2022-10-21T03:41:49.298Z,84.24
2022-10-21T03:44:21.747Z,84.51
2022-10-21T03:46:56.031Z,85.67
2022-10-21T03:49:28.409Z,85.58
2022-10-21T03:52:01.393Z,85.79
2022-10-21T03:54:33.797Z,85.68
2022-10-21T03:57:06.203Z,86.30
2022-10-21T03:59:38.518Z,86.73
2022-10-21T04:02:10.879Z,86.15
2022-10-21T04:04:43.261Z,86.11
2022-10-21T04:07:16.343Z,86.00
2022-10-21T04:09:48.691Z,86.36
2022-10-21T04:12:21.043Z,85.98
2022-10-21T04:14:53.342Z,86.00
2022-10-21T04:17:25.838Z,85.93
2022-10-21T04:19:58.139Z,86.41
2022-10-21T04:22:31.157Z,86.44
2022-10-21T04:25:04.818Z,86.51
2022-10-21T04:27:37.388Z,85.90
2022-10-21T04:30:10.437Z,85.76
2022-10-21T04:32:42.787Z,86.14
2022-10-21T04:35:15.207Z,86.35
2022-10-21T04:37:48.162Z,86.17
2022-10-21T04:40:20.539Z,85.99
2022-10-21T04:42:52.926Z,85.74
2022-10-21T04:45:25.295Z,85.66
2022-10-21T04:47:57.649Z,85.91
2022-10-21T04:50:29.987Z,86.50
2022-10-21T04:53:06.938Z,86.66
2022-10-21T04:55:39.851Z,86.88
2022-10-21T04:58:12.114Z,86.77
2022-10-21T05:00:44.456Z,86.70
2022-10-21T05:03:17.011Z,86.77
2022-10-21T05:05:49.993Z,86.78
2022-10-21T05:08:23.219Z,86.57
2022-10-21T05:10:59.584Z,86.39
2022-10-21T05:13:32.878Z,86.12
2022-10-21T05:16:05.998Z,86.47
2022-10-21T05:18:38.374Z,86.41
2022-10-21T05:21:10.717Z,86.66
2022-10-21T05:23:43.731Z,86.76
2022-10-21T05:26:16.072Z,87.02
2022-10-21T05:28:48.544Z,87.15
2022-10-21T05:31:20.915Z,86.82
2022-10-21T05:33:53.279Z,86.82
2022-10-21T05:36:25.683Z,86.70
2022-10-21T05:38:58.705Z,86.62
2022-10-21T05:41:31.118Z,87.14
2022-10-21T05:44:03.592Z,87.22
2022-10-21T05:46:36.043Z,87.05
2022-10-21T05:49:08.924Z,86.42
2022-10-21T05:51:41.285Z,86.82
2022-10-21T05:54:14.307Z,87.61
2022-10-21T05:56:47.447Z,87.84
2022-10-21T05:59:19.771Z,88.06
2022-10-21T06:01:52.227Z,88.50
2022-10-21T06:04:24.872Z,88.64
2022-10-21T06:09:37.054Z,89.29
2022-10-21T06:12:09.586Z,89.96
2022-10-21T06:14:41.926Z,90.33
2022-10-21T06:17:14.215Z,90.67
2022-10-21T06:19:50.187Z,91.09
2022-10-21T06:22:23.428Z,91.41
2022-10-21T06:24:56.427Z,91.56
2022-10-21T06:27:28.737Z,90.76
2022-10-21T06:30:01.122Z,91.12
2022-10-21T06:32:34.952Z,90.69
2022-10-21T06:35:07.700Z,89.75
2022-10-21T06:37:40.331Z,88.94
2022-10-21T06:40:13.460Z,89.33
2022-10-21T06:42:45.861Z,89.44
2022-10-21T06:45:18.556Z,87.20
2022-10-21T06:47:50.907Z,85.89
2022-10-21T06:50:23.246Z,85.25
2022-10-21T06:52:55.794Z,84.14
2022-10-21T06:55:28.774Z,84.59
2022-10-21T06:58:01.132Z,85.48
2022-10-21T07:00:33.408Z,85.04
2022-10-21T07:03:05.706Z,84.29
2022-10-21T07:05:38.037Z,83.46
2022-10-21T07:08:12.118Z,83.29
2022-10-21T07:10:45.922Z,83.87
2022-10-21T07:13:21.149Z,83.20
2022-10-21T07:16:01.452Z,82.89
2022-10-21T07:18:36.918Z,82.14
2022-10-21T07:21:14.141Z,79.76
2022-10-21T07:23:50.424Z,79.56
2022-10-21T07:26:24.868Z,79.35
2022-10-21T07:28:59.031Z,77.61
2022-10-21T07:31:34.140Z,77.89
2022-10-21T07:34:10.287Z,77.53
2022-10-21T07:36:47.174Z,76.80
2022-10-21T07:39:21.703Z,76.05
2022-10-21T07:41:57.431Z,74.90
2022-10-21T07:44:29.879Z,73.83
2022-10-21T07:47:02.271Z,74.74
2022-10-21T07:49:34.678Z,74.18
2022-10-21T07:52:07.160Z,74.50
2022-10-21T07:54:39.579Z,73.54
2022-10-21T07:57:12.595Z,74.56
2022-10-21T07:59:44.934Z,73.67
2022-10-21T08:02:17.257Z,72.95
2022-10-21T08:04:49.656Z,73.36
2022-10-21T08:07:21.942Z,72.78
2022-10-21T08:09:54.314Z,71.79
2022-10-21T08:12:27.314Z,71.06
2022-10-21T08:14:59.654Z,71.04
2022-10-21T08:17:32.045Z,70.03
2022-10-21T08:20:05.179Z,70.90
2022-10-21T08:22:37.787Z,69.19
2022-10-21T08:25:13.370Z,67.90
2022-10-21T08:27:46.354Z,68.17
2022-10-21T08:30:18.664Z,67.67
2022-10-21T08:32:51.035Z,67.52
2022-10-21T08:35:23.350Z,66.20
2022-10-21T08:37:55.764Z,66.12
2022-10-21T08:40:31.334Z,66.45
2022-10-21T08:43:08.667Z,65.63
2022-10-21T08:45:45.274Z,66.48
2022-10-21T08:48:23.544Z,66.01
2022-10-21T08:50:57.402Z,65.04
2022-10-21T08:53:35.124Z,65.67
2022-10-21T08:56:17.039Z,66.45
2022-10-21T08:58:52.775Z,65.72
2022-10-21T09:01:32.646Z,65.02
2022-10-21T09:04:12.983Z,64.30
2022-10-21T09:06:53.143Z,65.22
2022-10-21T09:09:32.535Z,64.21
2022-10-21T09:12:13.882Z,64.52
2022-10-21T09:15:00.282Z,63.68
2022-10-21T09:17:54.285Z,63.52
2022-10-21T09:20:40.920Z,63.28
2022-10-21T09:23:42.739Z,62.61
2022-10-21T09:26:30.854Z,62.55
2022-10-21T09:29:20.181Z,61.64
2022-10-21T09:32:01.362Z,62.53
2022-10-21T09:34:43.518Z,62.42
2022-10-21T09:37:25.711Z,61.48
2022-10-21T09:40:07.248Z,62.08
2022-10-21T09:42:47.499Z,61.25
2022-10-21T09:45:26.625Z,61.53
2022-10-21T09:48:02.964Z,60.78
2022-10-21T09:50:35.838Z,59.87
2022-10-21T09:53:15.615Z,60.83
2022-10-21T09:55:50.386Z,62.14
2022-10-21T09:58:25.819Z,61.58
2022-10-21T10:00:58.414Z,60.11
2022-10-21T10:03:34.027Z,60.26
2022-10-21T10:06:06.410Z,59.42
2022-10-21T10:08:40.315Z,58.31
2022-10-21T10:11:16.689Z,58.19
2022-10-21T10:13:51.037Z,57.26
2022-10-21T10:16:27.081Z,56.27
2022-10-21T10:19:16.794Z,57.80
2022-10-21T10:22:10.282Z,57.36
2022-10-21T10:24:44.127Z,58.22
2022-10-21T10:27:20.371Z,57.82
2022-10-21T10:29:55.074Z,57.70
2022-10-21T10:32:31.392Z,57.59
2022-10-21T10:35:08.384Z,57.24
2022-10-21T10:37:47.765Z,59.06
2022-10-21T10:40:24.035Z,59.08
2022-10-21T10:43:01.833Z,58.29
2022-10-21T10:45:34.843Z,56.57
2022-10-21T10:48:07.252Z,56.40
2022-10-21T10:50:42.675Z,55.27
2022-10-21T10:53:26.780Z,56.20
2022-10-21T10:56:07.896Z,56.26
2022-10-21T10:58:46.223Z,56.25
2022-10-21T11:01:27.802Z,55.86
2022-10-21T11:04:10.733Z,54.96
2022-10-21T11:06:50.002Z,53.42
2022-10-21T11:09:27.277Z,54.67
2022-10-21T11:12:05.831Z,54.25
2022-10-21T11:14:38.175Z,53.16
2022-10-21T11:17:12.872Z,53.87
2022-10-21T11:19:52.443Z,52.93
2022-10-21T11:22:34.243Z,53.28
2022-10-21T11:25:18.243Z,52.34
2022-10-21T11:28:07.119Z,52.85
2022-10-21T11:30:53.317Z,53.02
2022-10-21T11:33:37.875Z,52.61
2022-10-21T11:36:24.415Z,52.55
2022-10-21T11:39:35.001Z,52.62
2022-10-21T11:42:16.331Z,51.41
2022-10-21T11:45:01.689Z,51.29
2022-10-21T11:47:44.209Z,50.70
2022-10-21T11:50:24.238Z,50.92
2022-10-21T11:53:18.600Z,51.09
2022-10-21T11:56:02.031Z,51.04
2022-10-21T11:58:46.019Z,50.13
2022-10-21T12:01:28.906Z,51.07
2022-10-21T12:04:16.699Z,49.96
2022-10-21T12:06:58.895Z,50.43
2022-10-21T12:09:38.283Z,48.73
2022-10-21T12:12:12.952Z,48.98
2022-10-21T12:14:49.728Z,49.17
2022-10-21T12:17:22.575Z,49.82
2022-10-21T12:19:58.010Z,48.86
2022-10-21T12:22:33.016Z,49.20
2022-10-21T12:25:17.038Z,49.04
2022-10-21T12:27:55.434Z,49.23
2022-10-21T12:30:37.542Z,47.54
2022-10-21T12:33:17.842Z,47.36
2022-10-21T12:35:53.189Z,47.95
2022-10-21T12:38:44.367Z,48.56
2022-10-21T12:41:29.028Z,47.70
2022-10-21T12:44:14.348Z,46.96
2022-10-21T12:46:50.701Z,47.87
2022-10-21T12:49:31.647Z,47.78
2022-10-21T12:52:10.711Z,48.53
2022-10-21T12:54:52.353Z,48.11
2022-10-21T12:57:28.695Z,48.67
2022-10-21T13:00:16.287Z,48.82
2022-10-21T13:03:01.979Z,48.23
2022-10-21T13:06:01.539Z,48.46
2022-10-21T13:08:52.461Z,48.59
2022-10-21T13:11:38.427Z,49.59
2022-10-21T13:14:35.061Z,48.89
2022-10-21T13:17:27.795Z,49.44
2022-10-21T13:20:39.757Z,50.46
2022-10-21T13:23:36.982Z,49.85
2022-10-21T13:26:29.403Z,49.44
2022-10-21T13:29:22.955Z,49.89
2022-10-21T13:32:28.748Z,49.30
2022-10-21T13:35:20.501Z,49.78
2022-10-21T13:37:56.803Z,50.72
2022-10-21T13:40:36.609Z,51.41
2022-10-21T13:43:14.888Z,51.13
2022-10-21T13:45:49.117Z,51.70
2022-10-21T13:48:24.566Z,52.08
2022-10-21T13:51:11.349Z,51.14
2022-10-21T13:53:45.275Z,50.25
2022-10-21T13:56:22.562Z,50.60
2022-10-21T13:58:55.178Z,51.18
2022-10-21T14:01:30.660Z,51.52
2022-10-21T14:04:12.587Z,51.32
2022-10-21T14:06:47.764Z,51.00
2022-10-21T14:09:25.924Z,51.25
2022-10-21T14:12:02.188Z,51.00
2022-10-21T14:14:38.940Z,51.39
2022-10-21T14:17:16.387Z,51.03
2022-10-21T14:19:51.943Z,51.92
2022-10-21T14:22:28.428Z,51.78
2022-10-21T14:25:02.204Z,52.02
2022-10-21T14:27:36.080Z,52.67
2022-10-21T14:30:16.092Z,52.81
2022-10-21T14:32:49.327Z,53.56
2022-10-21T14:35:25.976Z,53.80
2022-10-21T14:38:00.540Z,54.06
2022-10-21T14:40:35.915Z,53.98
2022-10-21T14:43:18.499Z,55.32
2022-10-21T14:45:52.695Z,54.63
2022-10-21T14:48:28.485Z,55.43
2022-10-21T14:51:05.047Z,55.60
2022-10-21T14:53:44.747Z,55.66
2022-10-21T14:56:19.527Z,56.08
2022-10-21T14:58:56.023Z,55.82
2022-10-21T15:01:28.366Z,56.15
2022-10-21T15:04:01.324Z,56.25
2022-10-21T15:06:34.323Z,55.86
2022-10-21T15:09:18.051Z,55.32
2022-10-21T15:11:50.365Z,55.95
2022-10-21T15:14:31.254Z,55.80
2022-10-21T15:17:09.624Z,56.69
2022-10-21T15:19:45.057Z,56.61
2022-10-21T15:22:27.154Z,56.66
2022-10-21T15:25:06.670Z,56.83
2022-10-21T15:27:42.381Z,56.03
2022-10-21T15:30:18.414Z,55.68
2022-10-21T15:32:50.726Z,55.10
2022-10-21T15:35:23.240Z,54.94
2022-10-21T15:37:55.955Z,54.49
2022-10-21T15:40:31.925Z,53.22
2022-10-21T15:43:04.307Z,52.90
2022-10-21T15:45:40.579Z,53.76
2022-10-21T15:48:13.784Z,54.62
2022-10-21T15:50:46.145Z,55.41
2022-10-21T15:53:18.499Z,55.82
2022-10-21T15:55:51.051Z,56.77
2022-10-21T15:58:23.455Z,57.64
2022-10-21T16:00:56.446Z,58.52
2022-10-21T16:03:29.790Z,57.92
2022-10-21T16:06:02.131Z,58.76
2022-10-21T16:08:34.660Z,59.34
2022-10-21T16:11:08.959Z,60.26
2022-10-21T16:13:41.345Z,61.13
2022-10-21T16:16:19.060Z,61.09
2022-10-21T16:18:52.336Z,58.04
2022-10-21T16:21:24.646Z,59.52
2022-10-21T16:23:57.739Z,60.49
2022-10-21T16:26:32.383Z,60.13
2022-10-21T16:29:04.757Z,61.40
2022-10-21T16:31:37.808Z,62.03
2022-10-21T16:34:10.163Z,62.92
2022-10-21T16:36:42.993Z,63.55
2022-10-21T16:39:17.090Z,63.82
2022-10-21T16:41:49.474Z,64.02
2022-10-21T16:44:21.768Z,64.17
2022-10-21T16:46:55.477Z,64.22
2022-10-21T16:49:28.222Z,63.67
2022-10-21T16:52:01.482Z,64.03
2022-10-21T16:54:34.747Z,64.93
2022-10-21T16:57:07.382Z,65.30
2022-10-21T16:59:39.747Z,65.63
2022-10-21T17:02:16.539Z,65.92
2022-10-21T17:04:48.862Z,66.23
2022-10-21T17:07:21.209Z,66.67
2022-10-21T17:09:53.832Z,66.79
2022-10-21T17:12:26.231Z,66.77
2022-10-21T17:14:59.307Z,66.49
2022-10-21T17:17:32.515Z,66.71
2022-10-21T17:20:05.760Z,66.98
2022-10-21T17:22:38.066Z,67.44
2022-10-21T17:25:11.291Z,66.90
2022-10-21T17:27:43.633Z,67.67
2022-10-21T17:30:16.178Z,67.93
2022-10-21T17:32:49.231Z,68.56
2022-10-21T17:35:21.834Z,68.76
2022-10-21T17:37:54.115Z,68.77
2022-10-21T17:40:26.768Z,69.30
2022-10-21T17:42:59.103Z,68.95
2022-10-21T17:45:31.405Z,69.98
2022-10-21T17:48:05.138Z,70.10
2022-10-21T17:50:37.946Z,69.79
2022-10-21T17:53:10.395Z,69.03
2022-10-21T17:55:42.716Z,69.00
2022-10-21T17:58:15.503Z,68.86
2022-10-21T18:00:47.879Z,68.40
2022-10-21T18:03:20.870Z,68.04
2022-10-21T18:05:54.855Z,69.51
2022-10-21T18:08:27.207Z,69.69
2022-10-21T18:10:59.822Z,70.11
2022-10-21T18:13:32.179Z,70.04
2022-10-21T18:16:07.004Z,70.22
2022-10-21T18:21:16.515Z,70.73
2022-10-21T18:23:51.546Z,70.98
2022-10-21T18:26:26.194Z,70.50
2022-10-21T18:29:00.683Z,69.79
2022-10-21T18:31:36.225Z,70.31
2022-10-21T18:34:11.963Z,70.17
2022-10-21T18:36:44.325Z,69.82
2022-10-21T18:39:16.826Z,70.50
2022-10-21T18:41:49.219Z,70.50
2022-10-21T18:44:21.588Z,70.80
2022-10-21T18:46:56.018Z,71.22
2022-10-21T18:49:29.293Z,71.20
2022-10-21T18:52:01.588Z,71.27
2022-10-21T18:54:33.943Z,71.26
2022-10-21T18:57:09.174Z,72.32
2022-10-21T18:59:41.541Z,71.67
2022-10-21T19:02:20.143Z,71.85
2022-10-21T19:04:54.966Z,72.93
2022-10-21T19:07:29.609Z,73.04
2022-10-21T19:10:01.968Z,73.31
2022-10-21T19:12:34.278Z,73.42
2022-10-21T19:15:07.523Z,73.74
2022-10-21T19:17:41.139Z,73.42
2022-10-21T19:20:14.771Z,73.69
2022-10-21T19:22:47.378Z,74.56
2022-10-21T19:25:19.728Z,74.66
2022-10-21T19:27:52.084Z,74.45
2022-10-21T19:30:24.406Z,74.70
2022-10-21T19:32:59.492Z,74.86
2022-10-21T19:35:33.001Z,75.57
2022-10-21T19:38:11.325Z,75.58
2022-10-21T19:43:21.014Z,76.02
2022-10-21T19:45:54.275Z,76.10
2022-10-21T19:48:26.610Z,76.53
2022-10-21T19:50:59.621Z,76.79
2022-10-21T19:53:33.563Z,76.24
2022-10-21T19:56:06.902Z,76.87
2022-10-21T19:58:39.990Z,77.43
2022-10-21T20:01:14.228Z,77.84
2022-10-21T20:03:48.094Z,78.12
2022-10-21T20:06:23.285Z,78.12
2022-10-21T20:08:57.602Z,78.14
2022-10-21T20:11:30.619Z,78.08
2022-10-21T20:14:03.627Z,78.37
2022-10-21T20:16:37.464Z,78.38
2022-10-21T20:19:11.894Z,78.70
2022-10-21T20:21:45.437Z,78.76
2022-10-21T20:24:17.733Z,78.99
2022-10-21T20:26:50.678Z,79.93
2022-10-21T20:29:23.015Z,79.80
2022-10-21T20:31:55.322Z,79.92
2022-10-21T20:34:27.694Z,79.68
2022-10-21T20:37:00.774Z,79.88
2022-10-21T20:39:33.073Z,79.28
2022-10-21T20:42:05.331Z,79.50
2022-10-21T20:44:37.840Z,79.95
2022-10-21T20:47:10.365Z,80.00
2022-10-21T20:49:42.727Z,79.90
2022-10-21T20:52:15.742Z,79.95
2022-10-21T20:54:50.646Z,80.17
2022-10-21T20:57:22.937Z,80.19
2022-10-21T20:59:55.279Z,79.68
2022-10-21T21:02:27.580Z,80.06
2022-10-21T21:04:59.889Z,79.98
2022-10-21T21:07:32.851Z,80.02
2022-10-21T21:10:06.162Z,80.26
2022-10-21T21:12:38.848Z,80.76
2022-10-21T21:15:11.291Z,81.16
2022-10-21T21:17:46.888Z,81.30
2022-10-21T21:20:19.166Z,81.33
2022-10-21T21:22:52.123Z,81.79
2022-10-21T21:25:24.464Z,81.29
2022-10-21T21:27:56.775Z,81.91
2022-10-21T21:30:29.063Z,81.78
2022-10-21T21:33:01.361Z,81.70
2022-10-21T21:35:33.662Z,82.07
2022-10-21T21:38:06.590Z,82.43
2022-10-21T21:40:38.938Z,81.99
2022-10-21T21:43:11.304Z,82.17
2022-10-21T21:45:43.908Z,82.08
2022-10-21T21:51:00.845Z,81.72
2022-10-21T21:53:33.793Z,82.06
2022-10-21T21:56:07.218Z,81.95
2022-10-21T21:58:39.606Z,81.42
2022-10-21T22:01:14.379Z,81.86
2022-10-21T22:03:48.506Z,82.21
2022-10-21T22:06:22.876Z,83.36
2022-10-21T22:08:56.720Z,83.58
2022-10-21T22:11:31.863Z,83.91
2022-10-21T22:14:04.540Z,83.59
2022-10-21T22:16:36.843Z,83.86
2022-10-21T22:19:11.212Z,83.72
2022-10-21T22:21:43.560Z,84.02
2022-10-21T22:24:16.480Z,83.26
2022-10-21T22:26:48.795Z,83.42
2022-10-21T22:29:21.083Z,83.09
2022-10-21T22:31:53.309Z,83.17
2022-10-21T22:34:25.779Z,83.45
2022-10-21T22:36:58.110Z,82.73
2022-10-21T22:39:31.123Z,83.01
2022-10-21T22:42:03.535Z,83.29
2022-10-21T22:44:35.820Z,83.13
2022-10-21T22:47:08.181Z,83.26
2022-10-21T22:49:40.491Z,83.50
2022-10-21T22:52:12.774Z,83.66
2022-10-21T22:54:49.495Z,84.14
2022-10-21T22:57:22.302Z,84.35
2022-10-21T22:59:54.698Z,84.75
2022-10-21T23:02:27.033Z,85.36
2022-10-21T23:04:59.312Z,85.36
2022-10-21T23:07:31.681Z,85.50
2022-10-21T23:12:43.520Z,85.99
2022-10-21T23:15:15.868Z,85.94
2022-10-21T23:17:48.151Z,86.28
2022-10-21T23:20:20.517Z,85.59
2022-10-21T23:22:52.873Z,86.06
2022-10-21T23:25:26.192Z,86.01
2022-10-21T23:27:58.568Z,85.54
2022-10-21T23:30:30.917Z,85.74
2022-10-21T23:33:03.710Z,85.96
2022-10-21T23:35:36.012Z,86.06
2022-10-21T23:38:08.327Z,86.85
2022-10-21T23:40:41.523Z,87.38
2022-10-21T23:43:13.917Z,86.79
2022-10-21T23:45:47.639Z,86.65
2022-10-21T23:48:19.912Z,85.27
2022-10-21T23:50:52.271Z,85.47
2022-10-21T23:53:24.606Z,84.99
2022-10-21T23:55:57.609Z,85.33
2022-10-21T23:58:29.973Z,84.81
